Time;durP1;ratioP1;P1;durP2;ratioP2;P2;SDS_P1;SDS_P2;PMS_P1;PMS_P2;Temp;Humidity;BMP_temperature;BMP_pressure;BME280_temperature;BME280_humidity;BME280_pressure;Samples;Min_cycle;Max_cycle;Signal;HPM_P1;HPM_P2
2024/01/22 00:00:15;;;;;;;6.32;2.90;;;;;;;;;;683777;28;1159;-66
2024/01/22 00:00:36;;;;;;;6.30;2.80;;;;;;;;;;685527;28;1838;-68
2024/01/22 00:00:56;;;;;;;6.20;2.60;;;;;;;;;;684214;28;1461;-67
2024/01/22 00:01:16;;;;;;;5.30;2.67;;;;;;;;;;684667;28;1291;-67
2024/01/22 00:01:36;;;;;;;4.80;2.67;;;;;;;;;;686011;28;4536;-68
2024/01/22 00:01:56;;;;;;;4.90;2.80;;;;;;;;;;687363;28;1377;-69
2024/01/22 00:02:17;;;;;;;5.63;2.77;;;;;;;;;;688237;28;1306;-68
2024/01/22 00:02:37;;;;;;;4.87;2.60;;;;;;;;;;686193;28;1832;-68
2024/01/22 00:02:58;;;;;;;5.65;2.58;;;;;;;;;;687758;28;1437;-66
2024/01/22 00:03:21;;;;;;;6.30;2.55;;;;;;;;;;687642;28;1313;-67
2024/01/22 00:03:42;;;;;;;6.47;2.70;;;;;;;;;;688859;28;1469;-68
2024/01/22 00:04:02;;;;;;;5.80;2.60;;;;;;;;;;690622;28;1278;-70
2024/01/22 00:04:22;;;;;;;5.03;2.50;;;;;;;;;;686478;28;4453;-68
2024/01/22 00:04:43;;;;;;;5.88;2.50;;;;;;;;;;683548;28;1544;-63
2024/01/22 00:05:04;;;;;;;6.15;3.15;;;;;;;;;;684988;28;1259;-68
2024/01/22 00:05:25;;;;;;;6.18;2.70;;;;;;;;;;685384;28;1212;-66
2024/01/22 00:05:45;;;;;;;5.97;2.60;;;;;;;;;;685701;28;1244;-66
2024/01/22 00:06:06;;;;;;;5.35;2.65;;;;;;;;;;686264;28;1283;-71
2024/01/22 00:06:26;;;;;;;4.77;2.63;;;;;;;;;;685542;28;2030;-66
2024/01/22 00:06:47;;;;;;;4.70;2.47;;;;;;;;;;685682;28;1203;-68
2024/01/22 00:07:07;;;;;;;5.07;2.33;;;;;;;;;;684949;28;1314;-66
2024/01/22 00:07:28;;;;;;;5.87;2.57;;;;;;;;;;684599;28;4325;-67
2024/01/22 00:07:50;;;;;;;5.93;2.63;;;;;;;;;;688065;28;1416;-68
2024/01/22 00:08:11;;;;;;;5.03;2.42;;;;;;;;;;689144;28;1206;-68
2024/01/22 00:08:32;;;;;;;5.57;2.70;;;;;;;;;;686255;28;1942;-67
2024/01/22 00:08:53;;;;;;;5.70;2.60;;;;;;;;;;687620;28;1214;-66
2024/01/22 00:09:14;;;;;;;5.65;2.83;;;;;;;;;;688451;28;1313;-66
2024/01/22 00:09:34;;;;;;;5.35;2.72;;;;;;;;;;686227;28;1432;-67
2024/01/22 00:09:54;;;;;;;5.70;2.70;;;;;;;;;;687888;28;1602;-68
2024/01/22 00:10:15;;;;;;;6.30;2.65;;;;;;;;;;687693;28;1219;-66
2024/01/22 00:10:35;;;;;;;6.30;2.73;;;;;;;;;;685254;28;4480;-69
2024/01/22 00:10:55;;;;;;;5.30;2.50;;;;;;;;;;687321;28;1401;-69
2024/01/22 00:11:15;;;;;;;5.95;2.70;;;;;;;;;;688346;28;1302;-68
2024/01/22 00:11:36;;;;;;;6.03;2.63;;;;;;;;;;684443;28;1999;-68
2024/01/22 00:11:56;;;;;;;6.33;2.60;;;;;;;;;;686111;28;1906;-69
2024/01/22 00:12:16;;;;;;;6.50;2.53;;;;;;;;;;687225;28;1426;-67
2024/01/22 00:12:37;;;;;;;5.15;2.47;;;;;;;;;;684951;28;1429;-66
2024/01/22 00:12:57;;;;;;;5.47;2.70;;;;;;;;;;685548;28;1421;-71
2024/01/22 00:13:17;;;;;;;5.78;2.67;;;;;;;;;;686603;28;1402;-67
2024/01/22 00:13:38;;;;;;;5.70;2.47;;;;;;;;;;685114;28;4722;-67
2024/01/22 00:13:58;;;;;;;4.83;2.47;;;;;;;;;;688172;28;1591;-69
2024/01/22 00:14:19;;;;;;;5.53;2.53;;;;;;;;;;687156;28;1340;-71
2024/01/22 00:14:39;;;;;;;5.43;2.50;;;;;;;;;;686316;28;1674;-66
2024/01/22 00:15:00;;;;;;;5.27;2.50;;;;;;;;;;684151;28;1414;-70
2024/01/22 00:15:20;;;;;;;5.55;2.65;;;;;;;;;;685684;28;1369;-66
2024/01/22 00:15:40;;;;;;;5.57;2.50;;;;;;;;;;686565;28;2349;-72
2024/01/22 00:16:00;;;;;;;6.10;3.00;;;;;;;;;;687437;28;1335;-69
2024/01/22 00:16:21;;;;;;;5.75;2.53;;;;;;;;;;686810;28;4313;-67
2024/01/22 00:16:41;;;;;;;5.20;2.50;;;;;;;;;;684201;28;1676;-68
2024/01/22 00:17:01;;;;;;;4.73;2.50;;;;;;;;;;684637;28;1293;-66
2024/01/22 00:17:22;;;;;;;4.63;2.40;;;;;;;;;;685200;28;1235;-66
2024/01/22 00:17:42;;;;;;;5.38;2.58;;;;;;;;;;684566;28;1885;-69
2024/01/22 00:18:02;;;;;;;5.03;2.63;;;;;;;;;;686183;28;1290;-68
2024/01/22 00:18:23;;;;;;;5.37;2.53;;;;;;;;;;685168;28;1278;-68
2024/01/22 00:18:43;;;;;;;6.47;2.67;;;;;;;;;;684298;28;1984;-67
2024/01/22 00:19:03;;;;;;;5.10;2.60;;;;;;;;;;685345;28;1259;-68
2024/01/22 00:19:23;;;;;;;5.17;2.50;;;;;;;;;;685738;28;4494;-67
2024/01/22 00:19:44;;;;;;;5.03;2.47;;;;;;;;;;687175;28;1020;-68
2024/01/22 00:20:05;;;;;;;7.45;3.00;;;;;;;;;;688136;28;1207;-67
2024/01/22 00:20:25;;;;;;;7.40;2.70;;;;;;;;;;686855;28;1270;-67
2024/01/22 00:20:45;;;;;;;5.50;2.40;;;;;;;;;;686579;28;1084;-68
2024/01/22 00:21:05;;;;;;;5.27;2.40;;;;;;;;;;687481;28;1293;-67
2024/01/22 00:21:26;;;;;;;5.50;2.30;;;;;;;;;;687789;28;1238;-67
2024/01/22 00:21:46;;;;;;;6.10;2.37;;;;;;;;;;687038;28;1961;-67
2024/01/22 00:22:06;;;;;;;7.03;2.60;;;;;;;;;;685033;28;1220;-68
2024/01/22 00:22:26;;;;;;;6.00;2.60;;;;;;;;;;683139;28;4336;-70
2024/01/22 00:22:46;;;;;;;6.00;2.60;;;;;;;;;;681593;28;2333;-68
2024/01/22 00:23:07;;;;;;;5.07;2.50;;;;;;;;;;679067;29;1537;-68
2024/01/22 00:23:27;;;;;;;4.80;2.23;;;;;;;;;;679044;29;2027;-67
2024/01/22 00:23:47;;;;;;;4.85;2.55;;;;;;;;;;679978;29;1203;-68
2024/01/22 00:24:08;;;;;;;5.97;2.73;;;;;;;;;;682100;28;1299;-68
2024/01/22 00:24:28;;;;;;;4.95;2.70;;;;;;;;;;681013;28;2480;-68
2024/01/22 00:24:48;;;;;;;4.57;2.40;;;;;;;;;;685950;28;1267;-69
2024/01/22 00:25:09;;;;;;;5.17;2.50;;;;;;;;;;684978;28;1255;-66
2024/01/22 00:25:29;;;;;;;5.10;2.50;;;;;;;;;;684123;28;4645;-68
2024/01/22 00:25:50;;;;;;;5.50;2.50;;;;;;;;;;687540;28;1258;-66
2024/01/22 00:26:14;;;;;;;6.53;3.00;;;;;;;;;;689100;28;1305;-69
2024/01/22 00:26:34;;;;;;;4.88;2.30;;;;;;;;;;686099;28;1910;-68
2024/01/22 00:26:54;;;;;;;5.70;2.47;;;;;;;;;;687690;28;1065;-68
2024/01/22 00:27:15;;;;;;;4.80;2.50;;;;;;;;;;688158;28;1258;-68
2024/01/22 00:27:35;;;;;;;4.80;2.60;;;;;;;;;;686148;28;1846;-66
2024/01/22 00:27:55;;;;;;;6.07;2.57;;;;;;;;;;688805;28;1227;-68
2024/01/22 00:28:16;;;;;;;6.18;2.80;;;;;;;;;;688182;28;1361;-68
2024/01/22 00:28:36;;;;;;;5.63;2.73;;;;;;;;;;685644;28;4620;-67
2024/01/22 00:28:56;;;;;;;5.60;2.42;;;;;;;;;;688448;28;1255;-71
2024/01/22 00:29:17;;;;;;;5.37;2.30;;;;;;;;;;687945;28;1278;-66
2024/01/22 00:29:37;;;;;;;4.63;2.30;;;;;;;;;;686273;28;1361;-70
2024/01/22 00:29:57;;;;;;;6.00;2.30;;;;;;;;;;687862;28;1322;-69
2024/01/22 00:30:17;;;;;;;4.68;2.10;;;;;;;;;;687124;28;1349;-66
2024/01/22 00:30:38;;;;;;;3.83;1.90;;;;;;;;;;686201;28;1757;-71
2024/01/22 00:30:58;;;;;;;4.87;2.30;;;;;;;;;;687572;28;1341;-67
2024/01/22 00:31:18;;;;;;;6.18;2.70;;;;;;;;;;688555;28;1535;-67
2024/01/22 00:31:38;;;;;;;5.47;2.50;;;;;;;;;;685665;28;4440;-66
2024/01/22 00:31:58;;;;;;;5.00;2.60;;;;;;;;;;687080;28;1977;-66
2024/01/22 00:32:19;;;;;;;5.50;2.47;;;;;;;;;;687804;28;1092;-69
2024/01/22 00:32:39;;;;;;;6.20;2.50;;;;;;;;;;686611;28;1096;-66
2024/01/22 00:32:59;;;;;;;5.77;2.30;;;;;;;;;;687183;28;1227;-68
2024/01/22 00:33:19;;;;;;;6.33;2.33;;;;;;;;;;687336;28;1259;-69
2024/01/22 00:33:41;;;;;;;6.45;2.50;;;;;;;;;;685971;28;1944;-66
2024/01/22 00:34:02;;;;;;;6.88;2.42;;;;;;;;;;687764;28;1271;-67
2024/01/22 00:34:22;;;;;;;5.63;2.43;;;;;;;;;;689895;28;4420;-67
2024/01/22 00:34:42;;;;;;;5.17;2.60;;;;;;;;;;688968;28;1815;-67
2024/01/22 00:35:02;;;;;;;5.32;2.50;;;;;;;;;;691082;28;1297;-67
2024/01/22 00:35:23;;;;;;;5.17;2.47;;;;;;;;;;687360;28;1251;-69
2024/01/22 00:35:43;;;;;;;5.23;2.40;;;;;;;;;;685655;28;6218;-71
2024/01/22 00:36:03;;;;;;;5.63;2.53;;;;;;;;;;686493;28;3701;-68
2024/01/22 00:36:24;;;;;;;4.97;2.53;;;;;;;;;;686588;28;1255;-69
2024/01/22 00:36:44;;;;;;;5.35;2.42;;;;;;;;;;686137;28;2736;-69
2024/01/22 00:37:04;;;;;;;4.87;2.37;;;;;;;;;;687288;28;1216;-69
2024/01/22 00:37:24;;;;;;;4.47;2.20;;;;;;;;;;687301;28;5432;-66
2024/01/22 00:37:45;;;;;;;6.07;2.40;;;;;;;;;;685873;28;2180;-69
2024/01/22 00:38:05;;;;;;;5.27;2.23;;;;;;;;;;686910;28;1295;-68
2024/01/22 00:38:26;;;;;;;5.30;2.05;;;;;;;;;;687725;28;1270;-68
2024/01/22 00:38:46;;;;;;;5.20;2.43;;;;;;;;;;686478;28;1865;-69
2024/01/22 00:39:06;;;;;;;4.13;2.37;;;;;;;;;;687600;28;1271;-69
2024/01/22 00:39:26;;;;;;;4.87;2.40;;;;;;;;;;688348;28;1273;-68
2024/01/22 00:39:47;;;;;;;4.73;2.27;;;;;;;;;;686230;28;1734;-69
2024/01/22 00:40:07;;;;;;;4.20;2.10;;;;;;;;;;687415;28;1280;-69
2024/01/22 00:40:27;;;;;;;4.85;2.38;;;;;;;;;;687199;28;4604;-69
2024/01/22 00:40:48;;;;;;;4.80;2.30;;;;;;;;;;687073;28;1786;-67
2024/01/22 00:41:08;;;;;;;4.70;2.30;;;;;;;;;;687415;28;1243;-69
2024/01/22 00:41:29;;;;;;;4.90;2.35;;;;;;;;;;686275;28;1849;-66
2024/01/22 00:41:49;;;;;;;4.77;2.37;;;;;;;;;;688740;28;1330;-67
2024/01/22 00:42:09;;;;;;;5.22;2.38;;;;;;;;;;683823;28;1379;-68
2024/01/22 00:42:29;;;;;;;5.53;2.20;;;;;;;;;;683359;28;1164;-69
2024/01/22 00:42:50;;;;;;;5.27;2.30;;;;;;;;;;687398;28;909;-67
2024/01/22 00:43:10;;;;;;;5.70;2.50;;;;;;;;;;686890;28;1235;-68
2024/01/22 00:43:30;;;;;;;5.63;2.20;;;;;;;;;;685568;28;4441;-69
2024/01/22 00:43:50;;;;;;;6.30;2.30;;;;;;;;;;687442;28;1374;-70
2024/01/22 00:44:11;;;;;;;5.55;2.20;;;;;;;;;;687102;28;1246;-68
2024/01/22 00:44:31;;;;;;;6.03;2.60;;;;;;;;;;686969;28;2173;-70
2024/01/22 00:44:51;;;;;;;5.50;2.60;;;;;;;;;;687626;28;1265;-68
2024/01/22 00:45:11;;;;;;;4.77;2.20;;;;;;;;;;687857;28;1239;-67
2024/01/22 00:45:32;;;;;;;4.93;2.10;;;;;;;;;;685843;28;1995;-68
2024/01/22 00:45:52;;;;;;;6.33;2.80;;;;;;;;;;687736;28;1148;-67
2024/01/22 00:46:12;;;;;;;5.22;2.80;;;;;;;;;;687279;28;1315;-69
2024/01/22 00:46:33;;;;;;;5.57;2.70;;;;;;;;;;686418;28;4310;-70
2024/01/22 00:46:53;;;;;;;4.93;2.20;;;;;;;;;;687909;28;1231;-69
2024/01/22 00:47:13;;;;;;;4.32;1.98;;;;;;;;;;687951;28;1289;-70
2024/01/22 00:47:33;;;;;;;4.67;2.33;;;;;;;;;;687003;28;1861;-69
2024/01/22 00:47:54;;;;;;;6.23;2.30;;;;;;;;;;687556;28;1310;-67
2024/01/22 00:48:14;;;;;;;4.23;2.10;;;;;;;;;;688501;28;1120;-68
2024/01/22 00:48:34;;;;;;;5.03;2.43;;;;;;;;;;686210;28;1647;-68
2024/01/22 00:48:54;;;;;;;4.67;2.30;;;;;;;;;;687771;28;1183;-71
2024/01/22 00:49:15;;;;;;;4.90;2.20;;;;;;;;;;688753;28;1254;-68
2024/01/22 00:49:35;;;;;;;5.07;2.22;;;;;;;;;;685575;28;4300;-68
2024/01/22 00:49:55;;;;;;;5.83;2.40;;;;;;;;;;687071;28;1419;-71
2024/01/22 00:50:15;;;;;;;5.83;2.47;;;;;;;;;;687574;28;1398;-69
2024/01/22 00:50:36;;;;;;;5.60;2.25;;;;;;;;;;684465;28;1437;-71
2024/01/22 00:50:56;;;;;;;4.13;2.30;;;;;;;;;;685474;28;1192;-68
2024/01/22 00:51:16;;;;;;;5.17;2.40;;;;;;;;;;686636;28;1448;-67
2024/01/22 00:51:37;;;;;;;4.53;2.03;;;;;;;;;;684736;28;2352;-68
2024/01/22 00:51:57;;;;;;;5.83;2.07;;;;;;;;;;688518;28;1906;-69
2024/01/22 00:52:17;;;;;;;4.53;2.17;;;;;;;;;;687792;28;1321;-66
2024/01/22 00:52:37;;;;;;;4.20;2.38;;;;;;;;;;686386;28;4333;-68
2024/01/22 00:52:58;;;;;;;4.77;2.50;;;;;;;;;;688513;28;1330;-69
2024/01/22 00:53:18;;;;;;;6.00;2.13;;;;;;;;;;687556;28;1159;-68
2024/01/22 00:53:38;;;;;;;4.10;1.58;;;;;;;;;;683901;28;1437;-70
2024/01/22 00:53:58;;;;;;;4.37;2.00;;;;;;;;;;685312;28;1387;-70
2024/01/22 00:54:19;;;;;;;4.53;2.20;;;;;;;;;;684815;28;1626;-71
2024/01/22 00:54:39;;;;;;;4.93;2.17;;;;;;;;;;682590;28;1441;-70
2024/01/22 00:54:59;;;;;;;5.30;2.10;;;;;;;;;;684863;28;1291;-72
2024/01/22 00:55:20;;;;;;;6.40;2.13;;;;;;;;;;681949;28;4534;-67
2024/01/22 00:55:40;;;;;;;5.80;2.30;;;;;;;;;;681994;28;1869;-69
2024/01/22 00:56:00;;;;;;;5.90;2.50;;;;;;;;;;682475;28;1291;-67
2024/01/22 00:56:21;;;;;;;5.53;2.60;;;;;;;;;;683536;28;1205;-69
2024/01/22 00:56:41;;;;;;;4.47;2.38;;;;;;;;;;680541;28;1580;-70
2024/01/22 00:57:01;;;;;;;5.00;2.37;;;;;;;;;;677303;28;1386;-68
2024/01/22 00:57:22;;;;;;;5.30;2.30;;;;;;;;;;678857;29;1483;-70
2024/01/22 00:57:42;;;;;;;4.77;2.60;;;;;;;;;;675537;29;1968;-67
2024/01/22 00:58:02;;;;;;;5.30;3.00;;;;;;;;;;678093;29;1234;-69
2024/01/22 00:58:23;;;;;;;4.93;2.63;;;;;;;;;;677988;28;4379;-68
2024/01/22 00:58:43;;;;;;;4.67;2.10;;;;;;;;;;683270;28;1785;-64
2024/01/22 00:59:03;;;;;;;5.50;2.17;;;;;;;;;;687705;28;1330;-67
2024/01/22 00:59:23;;;;;;;6.03;2.50;;;;;;;;;;692530;28;1226;-68
2024/01/22 00:59:43;;;;;;;5.47;2.10;;;;;;;;;;689586;28;2079;-70
2024/01/22 01:00:07;;;;;;;4.67;2.20;;;;;;;;;;692347;28;1311;-70
2024/01/22 01:00:27;;;;;;;4.65;2.10;;;;;;;;;;688658;28;1085;-70
2024/01/22 01:00:48;;;;;;;4.77;2.10;;;;;;;;;;687577;28;1586;-70
2024/01/22 01:01:08;;;;;;;5.25;2.30;;;;;;;;;;689025;28;1362;-70
2024/01/22 01:01:31;;;;;;;4.47;2.33;;;;;;;;;;686752;28;4315;-69
2024/01/22 01:01:52;;;;;;;4.88;2.28;;;;;;;;;;686836;28;1318;-67
2024/01/22 01:02:12;;;;;;;5.13;2.37;;;;;;;;;;686968;28;1379;-69
2024/01/22 01:02:32;;;;;;;5.27;2.57;;;;;;;;;;685262;28;1211;-68
2024/01/22 01:02:52;;;;;;;4.38;2.30;;;;;;;;;;684551;28;1192;-68
2024/01/22 01:03:13;;;;;;;5.17;2.20;;;;;;;;;;684303;28;1410;-68
2024/01/22 01:03:36;;;;;;;5.95;2.20;;;;;;;;;;684659;28;2128;-68
2024/01/22 01:03:57;;;;;;;5.90;2.20;;;;;;;;;;684914;28;1341;-68
2024/01/22 01:04:17;;;;;;;5.03;2.20;;;;;;;;;;684335;28;1354;-69
2024/01/22 01:04:37;;;;;;;4.00;2.07;;;;;;;;;;686333;28;4535;-69
2024/01/22 01:04:58;;;;;;;3.97;2.20;;;;;;;;;;687055;28;1176;-68
2024/01/22 01:05:18;;;;;;;4.60;2.40;;;;;;;;;;689977;28;1553;-69
2024/01/22 01:05:38;;;;;;;5.27;2.20;;;;;;;;;;689616;28;1907;-68
2024/01/22 01:05:58;;;;;;;4.60;2.20;;;;;;;;;;691900;28;1488;-72
2024/01/22 01:06:19;;;;;;;4.82;2.25;;;;;;;;;;686472;28;1433;-69
2024/01/22 01:06:39;;;;;;;4.63;2.30;;;;;;;;;;685799;28;2028;-71
2024/01/22 01:06:59;;;;;;;5.17;2.20;;;;;;;;;;685613;28;1271;-70
2024/01/22 01:07:19;;;;;;;5.03;2.40;;;;;;;;;;686920;28;4482;-69
2024/01/22 01:07:40;;;;;;;5.65;2.40;;;;;;;;;;684796;28;2295;-69
2024/01/22 01:08:00;;;;;;;5.57;2.20;;;;;;;;;;685028;28;1363;-70
2024/01/22 01:08:20;;;;;;;5.43;2.20;;;;;;;;;;684059;28;1240;-69
2024/01/22 01:08:40;;;;;;;4.25;2.20;;;;;;;;;;684956;28;1548;-70
2024/01/22 01:09:02;;;;;;;5.10;2.10;;;;;;;;;;683770;28;1410;-69
2024/01/22 01:09:22;;;;;;;5.22;1.92;;;;;;;;;;684585;28;1255;-69
2024/01/22 01:09:42;;;;;;;4.57;2.30;;;;;;;;;;686358;28;1966;-70
2024/01/22 01:10:02;;;;;;;5.37;2.40;;;;;;;;;;690496;28;1235;-69
2024/01/22 01:10:23;;;;;;;5.60;2.40;;;;;;;;;;689204;28;4485;-70
2024/01/22 01:10:43;;;;;;;4.73;2.03;;;;;;;;;;691207;28;1444;-69
2024/01/22 01:11:03;;;;;;;5.43;2.25;;;;;;;;;;692610;28;1333;-68
2024/01/22 01:11:23;;;;;;;5.97;2.20;;;;;;;;;;692583;28;1301;-69
2024/01/22 01:11:44;;;;;;;5.13;2.40;;;;;;;;;;688831;28;2000;-69
2024/01/22 01:12:04;;;;;;;4.55;2.28;;;;;;;;;;690912;28;1915;-69
2024/01/22 01:12:24;;;;;;;5.03;2.10;;;;;;;;;;684464;28;1338;-69
2024/01/22 01:12:44;;;;;;;5.07;2.20;;;;;;;;;;683116;28;1820;-70
2024/01/22 01:13:05;;;;;;;4.60;2.13;;;;;;;;;;684907;28;1259;-69
2024/01/22 01:13:25;;;;;;;4.90;2.10;;;;;;;;;;684740;28;4511;-70
2024/01/22 01:13:45;;;;;;;4.30;2.20;;;;;;;;;;683165;28;1690;-68
2024/01/22 01:14:05;;;;;;;5.00;2.30;;;;;;;;;;687266;28;1228;-70
2024/01/22 01:14:26;;;;;;;4.97;2.30;;;;;;;;;;691607;28;1215;-71
2024/01/22 01:14:46;;;;;;;5.17;2.27;;;;;;;;;;690477;28;2407;-69
2024/01/22 01:15:07;;;;;;;4.82;2.10;;;;;;;;;;692472;28;1341;-70
2024/01/22 01:15:27;;;;;;;4.40;2.00;;;;;;;;;;689266;28;1215;-69
2024/01/22 01:15:47;;;;;;;4.53;2.10;;;;;;;;;;685378;28;1731;-68
2024/01/22 01:16:07;;;;;;;4.10;2.00;;;;;;;;;;684772;28;1334;-70
2024/01/22 01:16:28;;;;;;;4.07;1.97;;;;;;;;;;684239;28;4441;-69
2024/01/22 01:16:49;;;;;;;4.00;1.95;;;;;;;;;;683798;28;1145;-70
2024/01/22 01:17:09;;;;;;;5.00;2.30;;;;;;;;;;681856;28;1180;-72
2024/01/22 01:17:29;;;;;;;4.47;2.27;;;;;;;;;;684658;28;1298;-73
2024/01/22 01:17:50;;;;;;;4.55;2.20;;;;;;;;;;680118;28;1733;-70
2024/01/22 01:18:11;;;;;;;5.40;2.40;;;;;;;;;;682658;28;1253;-70
2024/01/22 01:18:31;;;;;;;4.80;2.40;;;;;;;;;;681995;28;1264;-70
2024/01/22 01:18:51;;;;;;;5.23;2.37;;;;;;;;;;680925;28;1793;-70
2024/01/22 01:19:11;;;;;;;5.37;2.43;;;;;;;;;;684626;28;1303;-69
2024/01/22 01:19:32;;;;;;;3.93;2.03;;;;;;;;;;683435;28;5714;-70
2024/01/22 01:19:52;;;;;;;5.00;2.00;;;;;;;;;;686888;28;1251;-72
2024/01/22 01:20:12;;;;;;;5.40;2.13;;;;;;;;;;687940;28;1258;-69
2024/01/22 01:20:34;;;;;;;4.03;1.90;;;;;;;;;;683207;28;1930;-69
2024/01/22 01:20:54;;;;;;;3.80;2.03;;;;;;;;;;684696;28;1240;-68
2024/01/22 01:21:16;;;;;;;4.60;2.27;;;;;;;;;;684761;28;1331;-69
2024/01/22 01:21:40;;;;;;;5.63;2.10;;;;;;;;;;680115;28;1375;-70
2024/01/22 01:22:00;;;;;;;4.57;2.03;;;;;;;;;;685220;28;1328;-69
2024/01/22 01:22:20;;;;;;;4.93;2.20;;;;;;;;;;687399;28;4447;-70
2024/01/22 01:22:40;;;;;;;5.10;2.00;;;;;;;;;;687454;28;1656;-70
2024/01/22 01:23:00;;;;;;;4.90;2.00;;;;;;;;;;689197;28;1193;-71
2024/01/22 01:23:21;;;;;;;4.45;2.00;;;;;;;;;;689808;28;1282;-68
2024/01/22 01:23:41;;;;;;;3.57;1.70;;;;;;;;;;687545;28;1858;-70
2024/01/22 01:24:01;;;;;;;4.47;1.97;;;;;;;;;;689677;28;1290;-70
2024/01/22 01:24:22;;;;;;;5.78;2.50;;;;;;;;;;686777;28;1220;-68
2024/01/22 01:24:42;;;;;;;4.73;2.30;;;;;;;;;;685797;28;2457;-69
2024/01/22 01:25:03;;;;;;;4.73;2.40;;;;;;;;;;687326;28;1263;-69
2024/01/22 01:25:23;;;;;;;4.80;2.30;;;;;;;;;;686237;28;4319;-68
2024/01/22 01:25:43;;;;;;;5.07;2.20;;;;;;;;;;684929;28;1347;-68
2024/01/22 01:26:04;;;;;;;5.23;2.10;;;;;;;;;;684389;28;1279;-70
2024/01/22 01:26:24;;;;;;;5.00;2.00;;;;;;;;;;685254;28;1228;-70
2024/01/22 01:26:45;;;;;;;4.53;2.20;;;;;;;;;;683818;28;1021;-70
2024/01/22 01:27:05;;;;;;;5.50;2.40;;;;;;;;;;684559;28;1270;-69
2024/01/22 01:27:25;;;;;;;5.57;2.58;;;;;;;;;;685323;28;1347;-72
2024/01/22 01:27:45;;;;;;;3.87;2.23;;;;;;;;;;684160;28;1662;-68
2024/01/22 01:28:06;;;;;;;4.13;2.07;;;;;;;;;;685694;28;1220;-69
2024/01/22 01:28:26;;;;;;;4.68;1.98;;;;;;;;;;683532;28;4313;-70
2024/01/22 01:28:46;;;;;;;4.73;2.00;;;;;;;;;;684032;28;1709;-70
2024/01/22 01:29:07;;;;;;;5.17;2.17;;;;;;;;;;684622;28;1279;-68
2024/01/22 01:29:27;;;;;;;4.10;2.20;;;;;;;;;;682145;28;1315;-70
2024/01/22 01:29:47;;;;;;;6.53;2.10;;;;;;;;;;683892;28;1818;-69
2024/01/22 01:30:10;;;;;;;5.18;2.10;;;;;;;;;;684387;28;1345;-70
2024/01/22 01:30:30;;;;;;;4.10;2.00;;;;;;;;;;683185;28;1358;-70
2024/01/22 01:30:50;;;;;;;4.75;2.17;;;;;;;;;;684930;28;1534;-70
2024/01/22 01:31:11;;;;;;;4.60;2.07;;;;;;;;;;682665;28;1221;-70
2024/01/22 01:31:31;;;;;;;4.00;2.00;;;;;;;;;;682620;28;4326;-72
2024/01/22 01:31:51;;;;;;;4.80;2.00;;;;;;;;;;685399;28;1607;-67
2024/01/22 01:32:12;;;;;;;4.30;1.80;;;;;;;;;;684991;28;3706;-72
2024/01/22 01:32:32;;;;;;;4.87;2.10;;;;;;;;;;683668;28;5138;-71
2024/01/22 01:32:53;;;;;;;5.25;2.10;;;;;;;;;;682918;28;1786;-72
2024/01/22 01:33:13;;;;;;;4.40;1.85;;;;;;;;;;684844;28;1334;-70
2024/01/22 01:33:34;;;;;;;4.20;1.73;;;;;;;;;;683148;28;1780;-70
2024/01/22 01:33:54;;;;;;;4.65;1.90;;;;;;;;;;684958;28;1300;-70
2024/01/22 01:34:14;;;;;;;5.07;1.80;;;;;;;;;;687449;28;1342;-69
2024/01/22 01:34:34;;;;;;;4.73;2.07;;;;;;;;;;688219;28;4333;-69
2024/01/22 01:34:55;;;;;;;4.68;2.20;;;;;;;;;;690063;28;1564;-71
2024/01/22 01:35:15;;;;;;;4.10;1.87;;;;;;;;;;684328;28;1461;-71
2024/01/22 01:35:35;;;;;;;5.13;1.73;;;;;;;;;;683371;28;2405;-70
2024/01/22 01:35:55;;;;;;;4.10;1.70;;;;;;;;;;681595;29;1363;-70
2024/01/22 01:36:16;;;;;;;3.97;1.77;;;;;;;;;;682907;28;1208;-73
2024/01/22 01:36:36;;;;;;;4.17;1.70;;;;;;;;;;678127;29;2327;-68
2024/01/22 01:36:56;;;;;;;4.03;1.70;;;;;;;;;;678625;28;1443;-70
2024/01/22 01:37:16;;;;;;;4.22;1.98;;;;;;;;;;685587;28;1587;-69
2024/01/22 01:37:37;;;;;;;5.40;2.20;;;;;;;;;;680498;28;4444;-70
2024/01/22 01:37:57;;;;;;;5.57;2.13;;;;;;;;;;684379;28;1263;-68
2024/01/22 01:38:17;;;;;;;3.58;1.70;;;;;;;;;;684944;28;1256;-70
2024/01/22 01:38:37;;;;;;;4.37;1.80;;;;;;;;;;685438;28;1504;-64
2024/01/22 01:38:58;;;;;;;4.30;1.70;;;;;;;;;;683822;28;1219;-70
2024/01/22 01:39:18;;;;;;;3.53;1.70;;;;;;;;;;686267;28;1169;-70
2024/01/22 01:39:38;;;;;;;4.07;1.80;;;;;;;;;;685456;28;1457;-71
2024/01/22 01:39:59;;;;;;;3.53;1.63;;;;;;;;;;686942;28;897;-70
2024/01/22 01:40:19;;;;;;;3.55;1.90;;;;;;;;;;685534;28;4527;-69
2024/01/22 01:40:41;;;;;;;4.38;2.03;;;;;;;;;;688136;28;2291;-73
2024/01/22 01:41:01;;;;;;;5.45;2.20;;;;;;;;;;689124;28;1338;-69
2024/01/22 01:41:22;;;;;;;5.30;2.33;;;;;;;;;;687498;28;1361;-69
2024/01/22 01:41:42;;;;;;;3.78;1.83;;;;;;;;;;686675;28;1811;-70
2024/01/22 01:42:02;;;;;;;3.37;1.53;;;;;;;;;;687646;28;1287;-70
2024/01/22 01:42:22;;;;;;;4.40;1.77;;;;;;;;;;684352;28;1272;-70
2024/01/22 01:42:43;;;;;;;3.43;1.63;;;;;;;;;;686725;28;2253;-70
2024/01/22 01:43:03;;;;;;;4.95;1.88;;;;;;;;;;687904;28;1231;-68
2024/01/22 01:43:24;;;;;;;5.90;2.30;;;;;;;;;;687703;28;4277;-70
2024/01/22 01:43:44;;;;;;;3.37;1.70;;;;;;;;;;685533;28;1640;-71
2024/01/22 01:44:04;;;;;;;3.63;1.90;;;;;;;;;;686507;28;1228;-68
2024/01/22 01:44:51;;;;;;;4.03;1.80;;;;;;;;;;687517;28;1259;-67
2024/01/22 01:45:12;;;;;;;5.38;1.83;;;;;;;;;;685327;28;1331;-71
2024/01/22 01:45:32;;;;;;;3.67;1.90;;;;;;;;;;687695;28;1426;-67
2024/01/22 01:45:53;;;;;;;3.50;1.60;;;;;;;;;;687681;28;1727;-68
2024/01/22 01:46:13;;;;;;;3.77;1.80;;;;;;;;;;687051;28;1441;-69
2024/01/22 01:46:33;;;;;;;3.90;1.90;;;;;;;;;;685973;28;4299;-70
2024/01/22 01:46:54;;;;;;;4.60;1.90;;;;;;;;;;686991;28;1389;-71
2024/01/22 01:47:15;;;;;;;4.17;1.70;;;;;;;;;;686940;28;1208;-72
2024/01/22 01:47:35;;;;;;;4.03;1.98;;;;;;;;;;687706;28;2461;-72
2024/01/22 01:47:55;;;;;;;4.70;1.93;;;;;;;;;;688459;28;1402;-70
2024/01/22 01:48:15;;;;;;;4.88;2.08;;;;;;;;;;688419;28;1337;-74
2024/01/22 01:48:36;;;;;;;4.23;1.80;;;;;;;;;;688017;28;2350;-71
2024/01/22 01:48:57;;;;;;;3.75;1.70;;;;;;;;;;687538;28;1425;-72
2024/01/22 01:49:18;;;;;;;4.15;1.65;;;;;;;;;;685093;28;1224;-71
2024/01/22 01:49:39;;;;;;;3.50;1.60;;;;;;;;;;685310;28;4430;-73
2024/01/22 01:49:59;;;;;;;5.00;1.83;;;;;;;;;;687766;28;1322;-71
2024/01/22 01:50:19;;;;;;;4.65;2.05;;;;;;;;;;688394;28;1295;-73
2024/01/22 01:50:40;;;;;;;3.72;1.83;;;;;;;;;;685637;28;1482;-71
2024/01/22 01:51:01;;;;;;;4.57;1.77;;;;;;;;;;687460;28;1369;-69
2024/01/22 01:51:21;;;;;;;4.20;1.80;;;;;;;;;;688141;28;1263;-68
2024/01/22 01:51:41;;;;;;;3.63;1.97;;;;;;;;;;685690;28;1807;-68
2024/01/22 01:52:02;;;;;;;3.83;1.90;;;;;;;;;;687518;28;1918;-71
2024/01/22 01:52:22;;;;;;;3.83;1.87;;;;;;;;;;686862;28;4378;-70
2024/01/22 01:52:43;;;;;;;3.40;1.80;;;;;;;;;;686753;28;1045;-70
2024/01/22 01:53:04;;;;;;;3.50;1.80;;;;;;;;;;691118;28;1270;-69
2024/01/22 01:53:25;;;;;;;3.42;1.60;;;;;;;;;;687403;28;1207;-72
2024/01/22 01:53:46;;;;;;;3.53;1.73;;;;;;;;;;685206;28;1454;-74
2024/01/22 01:54:07;;;;;;;3.47;1.73;;;;;;;;;;686890;28;1425;-72
2024/01/22 01:54:28;;;;;;;3.80;1.77;;;;;;;;;;687243;28;1406;-72
2024/01/22 01:54:49;;;;;;;3.83;1.70;;;;;;;;;;686697;28;1693;-69
2024/01/22 01:55:10;;;;;;;4.45;1.88;;;;;;;;;;687464;28;1278;-69
2024/01/22 01:55:30;;;;;;;3.53;1.80;;;;;;;;;;685472;28;4569;-70
2024/01/22 01:55:50;;;;;;;4.00;1.80;;;;;;;;;;686251;28;1758;-69
2024/01/22 01:56:11;;;;;;;4.47;1.80;;;;;;;;;;687247;28;1302;-70
2024/01/22 01:56:31;;;;;;;3.60;1.63;;;;;;;;;;687719;28;1251;-72
2024/01/22 01:56:52;;;;;;;3.40;1.67;;;;;;;;;;685590;28;2032;-69
2024/01/22 01:57:12;;;;;;;3.75;1.90;;;;;;;;;;687170;28;1476;-70
2024/01/22 01:57:32;;;;;;;3.37;1.80;;;;;;;;;;686377;28;1251;-65
2024/01/22 01:57:53;;;;;;;3.93;1.80;;;;;;;;;;686098;28;1894;-70
2024/01/22 01:58:14;;;;;;;3.85;1.70;;;;;;;;;;687601;28;1354;-71
2024/01/22 01:58:35;;;;;;;3.85;1.70;;;;;;;;;;685783;28;4306;-72
2024/01/22 01:58:55;;;;;;;3.80;1.88;;;;;;;;;;681722;28;1399;-71
2024/01/22 01:59:16;;;;;;;4.00;1.80;;;;;;;;;;681194;28;1059;-72
2024/01/22 01:59:37;;;;;;;4.77;1.63;;;;;;;;;;681925;28;1750;-70
2024/01/22 01:59:57;;;;;;;4.40;1.90;;;;;;;;;;685877;28;1365;-71
2024/01/22 02:00:18;;;;;;;3.45;1.90;;;;;;;;;;685200;28;1128;-70
2024/01/22 02:00:38;;;;;;;4.95;1.73;;;;;;;;;;685561;28;1466;-70
2024/01/22 02:00:59;;;;;;;4.63;1.80;;;;;;;;;;689389;28;1263;-71
2024/01/22 02:01:20;;;;;;;4.38;1.80;;;;;;;;;;689057;28;4343;-70
2024/01/22 02:01:40;;;;;;;3.63;1.70;;;;;;;;;;690685;28;2297;-70
2024/01/22 02:02:00;;;;;;;3.63;1.70;;;;;;;;;;689652;28;1223;-70
2024/01/22 02:02:20;;;;;;;3.87;1.70;;;;;;;;;;690527;28;1404;-69
2024/01/22 02:02:41;;;;;;;3.25;1.60;;;;;;;;;;688716;28;1704;-75
2024/01/22 02:03:01;;;;;;;4.57;1.80;;;;;;;;;;687613;28;1215;-70
2024/01/22 02:03:21;;;;;;;3.87;1.90;;;;;;;;;;687650;28;1242;-71
2024/01/22 02:03:42;;;;;;;3.47;1.75;;;;;;;;;;687642;28;1719;-69
2024/01/22 02:04:03;;;;;;;4.07;1.63;;;;;;;;;;687482;28;845;-71
2024/01/22 02:04:24;;;;;;;5.75;2.08;;;;;;;;;;687166;28;4347;-69
2024/01/22 02:04:44;;;;;;;2.97;1.60;;;;;;;;;;684040;28;1703;-69
2024/01/22 02:05:05;;;;;;;3.63;1.60;;;;;;;;;;684277;28;1243;-70
2024/01/22 02:05:25;;;;;;;3.60;1.60;;;;;;;;;;685875;28;1298;-73
2024/01/22 02:05:46;;;;;;;4.38;1.70;;;;;;;;;;683859;28;1802;-70
2024/01/22 02:06:06;;;;;;;5.03;1.80;;;;;;;;;;686660;28;1277;-71
2024/01/22 02:06:26;;;;;;;3.70;1.80;;;;;;;;;;686982;28;1224;-71
2024/01/22 02:06:46;;;;;;;4.27;1.80;;;;;;;;;;687069;28;1811;-70